Time;durP1;ratioP1;P1;durP2;ratioP2;P2;SDS_P1;SDS_P2;PMS_P1;PMS_P2;Temp;Humidity;BMP_temperature;BMP_pressure;BME280_temperature;BME280_humidity;BME280_pressure;Samples;Min_cycle;Max_cycle;Signal;HPM_P1;HPM_P2
2023/08/02 00:00:34;;;;;;;1.63;1.27;;;15.60;99.90;;;;;;4932649;29;20030;-79
2023/08/02 00:03:00;;;;;;;2.13;1.48;;;15.70;99.90;;;;;;4932889;29;20075;-77
2023/08/02 00:05:26;;;;;;;1.25;1.02;;;15.80;99.90;;;;;;4932727;29;20159;-79
2023/08/02 00:07:51;;;;;;;2.05;1.42;;;16.00;99.90;;;;;;4932328;29;20135;-79
2023/08/02 00:10:17;;;;;;;2.05;1.30;;;16.00;99.90;;;;;;4950052;29;20047;-79
2023/08/02 00:12:42;;;;;;;1.15;1.02;;;16.10;99.90;;;;;;4933147;29;20023;-78
2023/08/02 00:15:09;;;;;;;2.08;1.55;;;16.10;99.90;;;;;;4964723;28;20122;-78
2023/08/02 00:17:34;;;;;;;1.90;1.30;;;16.20;99.90;;;;;;4932713;29;20030;-78
2023/08/02 00:20:00;;;;;;;2.67;1.17;;;16.30;99.90;;;;;;4932457;29;20358;-78
2023/08/02 00:22:25;;;;;;;1.90;1.50;;;16.40;99.90;;;;;;4936213;29;20490;-81
2023/08/02 00:24:51;;;;;;;1.67;1.27;;;16.50;99.90;;;;;;4953842;29;20106;-78
2023/08/02 00:27:17;;;;;;;4.38;1.67;;;16.60;99.90;;;;;;4936033;29;20134;-78
2023/08/02 00:29:42;;;;;;;1.58;1.23;;;16.70;99.90;;;;;;4953440;29;20119;-78
2023/08/02 00:32:08;;;;;;;1.23;1.13;;;16.70;99.90;;;;;;4936773;29;20094;-83
2023/08/02 00:34:33;;;;;;;1.67;1.13;;;16.80;99.90;;;;;;4936633;29;20054;-79
2023/08/02 00:37:01;;;;;;;2.03;1.63;;;16.80;99.90;;;;;;4936083;29;20031;-80
2023/08/02 00:39:27;;;;;;;1.90;1.35;;;16.80;99.90;;;;;;4935742;29;20118;-78
2023/08/02 00:41:52;;;;;;;1.25;1.15;;;16.90;99.90;;;;;;4953699;29;20107;-78
2023/08/02 00:44:18;;;;;;;1.15;1.10;;;17.00;99.90;;;;;;4936254;29;20038;-80
2023/08/02 00:46:44;;;;;;;1.60;0.98;;;17.10;99.90;;;;;;4936278;29;20484;-77
2023/08/02 00:49:10;;;;;;;2.45;1.23;;;17.10;99.90;;;;;;4952974;29;20452;-78
2023/08/02 00:51:36;;;;;;;3.17;1.70;;;17.10;99.90;;;;;;4951389;29;20035;-78
2023/08/02 00:54:02;;;;;;;3.42;1.30;;;17.10;99.90;;;;;;4951648;29;20027;-78
2023/08/02 00:56:31;;;;;;;1.65;1.50;;;17.20;99.90;;;;;;4952202;29;20023;-79
2023/08/02 00:58:58;;;;;;;1.73;1.23;;;17.20;99.90;;;;;;4935367;29;20023;-77
2023/08/02 01:01:25;;;;;;;3.03;1.75;;;17.40;99.90;;;;;;4936751;29;20027;-77
2023/08/02 01:03:55;;;;;;;1.75;1.20;;;17.60;99.90;;;;;;4936277;29;20156;-77
2023/08/02 01:06:37;;;;;;;1.83;0.93;;;17.80;99.90;;;;;;4953363;29;20022;-77
2023/08/02 01:09:26;;;;;;;2.08;1.20;;;17.90;99.90;;;;;;4953755;29;20086;-77
2023/08/02 01:12:08;;;;;;;3.58;1.50;;;17.90;99.90;;;;;;4954165;29;20115;-76
2023/08/02 01:14:37;;;;;;;1.92;1.10;;;17.90;99.90;;;;;;4936439;29;20035;-77
2023/08/02 01:17:03;;;;;;;2.45;0.90;;;17.90;99.90;;;;;;4953577;29;20102;-79
2023/08/02 01:19:31;;;;;;;1.55;1.05;;;17.90;99.90;;;;;;4936270;29;20023;-77
2023/08/02 01:21:57;;;;;;;2.83;1.17;;;17.90;99.90;;;;;;4953348;29;20027;-77
2023/08/02 01:24:31;;;;;;;2.13;1.02;;;17.90;99.90;;;;;;4935946;29;20350;-78
2023/08/02 01:27:00;;;;;;;1.98;1.13;;;17.80;99.90;;;;;;4935805;29;20055;-78
2023/08/02 01:29:29;;;;;;;2.00;1.27;;;17.70;99.90;;;;;;4952955;29;20077;-77
2023/08/02 01:31:56;;;;;;;1.30;1.20;;;17.70;99.90;;;;;;4935890;29;20472;-79
2023/08/02 01:34:23;;;;;;;7.32;1.38;;;17.70;99.90;;;;;;4935866;29;20060;-77
2023/08/02 01:36:49;;;;;;;1.25;0.80;;;17.60;99.90;;;;;;4935491;29;20031;-78
2023/08/02 01:39:16;;;;;;;1.63;1.30;;;17.60;99.90;;;;;;4953061;29;20116;-79
2023/08/02 01:41:42;;;;;;;1.13;0.80;;;17.60;99.90;;;;;;4935925;29;20448;-78
2023/08/02 01:44:08;;;;;;;1.38;0.93;;;17.60;99.90;;;;;;4935640;29;20035;-78
2023/08/02 01:46:34;;;;;;;1.73;1.00;;;17.50;99.90;;;;;;4935641;29;20067;-78
2023/08/02 01:48:59;;;;;;;1.40;1.30;;;17.50;99.90;;;;;;4952929;29;20027;-78
2023/08/02 01:51:25;;;;;;;1.50;1.15;;;17.50;99.90;;;;;;4935363;29;20027;-78
2023/08/02 01:53:51;;;;;;;2.90;1.70;;;17.50;99.90;;;;;;4935313;29;20086;-78
2023/08/02 01:56:17;;;;;;;3.63;1.60;;;17.40;99.90;;;;;;4935605;29;20023;-79
2023/08/02 01:58:43;;;;;;;1.33;1.23;;;17.40;99.90;;;;;;4953207;29;20102;-79
2023/08/02 02:01:12;;;;;;;1.23;0.93;;;17.40;99.90;;;;;;4952735;29;20110;-77
2023/08/02 02:03:37;;;;;;;1.80;1.23;;;17.40;99.90;;;;;;4935404;29;20400;-78
2023/08/02 02:06:03;;;;;;;1.05;0.93;;;17.30;99.90;;;;;;4934839;29;20027;-78
2023/08/02 02:08:28;;;;;;;2.75;1.15;;;17.20;99.90;;;;;;4935123;29;20031;-77
2023/08/02 02:10:54;;;;;;;1.85;1.45;;;17.10;99.90;;;;;;4952517;29;20020;-79
2023/08/02 02:13:22;;;;;;;3.92;1.45;;;17.10;99.90;;;;;;4951893;29;20519;-78
2023/08/02 02:15:48;;;;;;;2.63;1.98;;;16.80;99.90;;;;;;4951999;29;20015;-77
2023/08/02 02:18:14;;;;;;;3.10;1.70;;;16.60;99.90;;;;;;4952466;29;20079;-77
2023/08/02 02:20:39;;;;;;;1.88;1.70;;;16.40;99.90;;;;;;4950524;29;20384;-77
2023/08/02 02:23:05;;;;;;;2.13;1.92;;;16.30;99.90;;;;;;4932914;29;20314;-78
2023/08/02 02:25:31;;;;;;;1.45;1.17;;;16.20;99.90;;;;;;4950377;29;20472;-78
2023/08/02 02:27:57;;;;;;;3.22;1.70;;;16.00;99.90;;;;;;4933113;29;20199;-77
2023/08/02 02:30:22;;;;;;;4.57;2.03;;;16.00;99.90;;;;;;4933322;29;20122;-77
2023/08/02 02:32:48;;;;;;;5.13;2.08;;;15.80;99.90;;;;;;4950494;29;20393;-78
2023/08/02 02:35:14;;;;;;;4.03;2.60;;;15.70;99.90;;;;;;4933302;29;20044;-77
2023/08/02 02:37:40;;;;;;;3.25;2.20;;;15.70;99.90;;;;;;4951372;29;20255;-77
2023/08/02 02:40:07;;;;;;;3.03;2.00;;;15.60;99.90;;;;;;4934730;29;20130;-78
2023/08/02 02:42:33;;;;;;;3.92;2.20;;;15.50;99.90;;;;;;4933528;28;20133;-78
2023/08/02 02:44:59;;;;;;;2.53;2.15;;;15.40;99.90;;;;;;4934121;29;20515;-77
2023/08/02 02:47:24;;;;;;;3.53;2.47;;;15.50;99.90;;;;;;4934791;29;20500;-77
2023/08/02 02:49:50;;;;;;;4.90;3.05;;;15.70;99.90;;;;;;4934522;29;20399;-78
2023/08/02 02:52:16;;;;;;;4.20;2.67;;;15.40;99.90;;;;;;4951507;29;20143;-77
2023/08/02 02:54:41;;;;;;;3.42;2.72;;;15.10;99.90;;;;;;4951367;29;20019;-79
2023/08/02 02:57:07;;;;;;;4.40;2.97;;;15.00;99.90;;;;;;4951736;29;20032;-79
2023/08/02 02:59:33;;;;;;;3.42;2.40;;;14.90;99.90;;;;;;4934329;29;20151;-80
2023/08/02 03:01:59;;;;;;;3.58;2.92;;;14.80;99.90;;;;;;4950839;28;20029;-78
2023/08/02 03:04:26;;;;;;;4.65;3.05;;;14.90;99.90;;;;;;4937641;29;20042;-78
2023/08/02 03:06:54;;;;;;;11.07;3.83;;;14.80;99.90;;;;;;4941890;29;20539;-78
2023/08/02 03:09:20;;;;;;;6.00;3.70;;;14.80;99.90;;;;;;4956955;29;20030;-79
2023/08/02 03:11:46;;;;;;;8.00;3.50;;;14.60;99.90;;;;;;4934483;29;20036;-81
2023/08/02 03:14:12;;;;;;;4.15;2.90;;;14.50;99.90;;;;;;4951912;29;20106;-79
2023/08/02 03:16:38;;;;;;;3.65;2.88;;;14.50;99.90;;;;;;4939683;29;20035;-79
2023/08/02 03:19:05;;;;;;;6.47;3.10;;;14.40;99.90;;;;;;4957188;29;20026;-78
2023/08/02 03:21:32;;;;;;;4.00;2.83;;;14.40;99.90;;;;;;4958341;29;20369;-79
2023/08/02 03:23:57;;;;;;;3.80;2.92;;;14.50;99.90;;;;;;4955572;29;20042;-79
2023/08/02 03:26:23;;;;;;;4.72;3.42;;;14.50;99.90;;;;;;4935249;29;20047;-78
2023/08/02 03:28:49;;;;;;;4.38;2.33;;;14.60;99.90;;;;;;4934967;29;20038;-78
2023/08/02 03:31:15;;;;;;;7.25;2.65;;;14.60;99.90;;;;;;4956783;29;20075;-78
2023/08/02 03:33:41;;;;;;;5.53;3.17;;;14.60;99.90;;;;;;4958548;29;20031;-79
2023/08/02 03:36:07;;;;;;;5.57;3.63;;;14.70;99.90;;;;;;4940383;29;20020;-81
2023/08/02 03:38:33;;;;;;;8.93;3.95;;;14.60;99.90;;;;;;4955330;29;20106;-77
2023/08/02 03:40:59;;;;;;;5.00;3.05;;;14.50;99.90;;;;;;4952125;29;20155;-79
2023/08/02 03:43:25;;;;;;;7.32;4.10;;;14.50;99.90;;;;;;4955106;29;20050;-78
2023/08/02 03:45:50;;;;;;;4.47;3.00;;;14.50;99.90;;;;;;4934463;29;20023;-78
2023/08/02 03:48:16;;;;;;;4.80;3.25;;;14.60;99.90;;;;;;4935016;29;20027;-80
2023/08/02 03:50:42;;;;;;;5.35;3.55;;;14.60;99.90;;;;;;4959389;29;20023;-77
2023/08/02 03:53:08;;;;;;;5.20;3.13;;;14.70;99.90;;;;;;4967063;29;20484;-78
2023/08/02 03:55:38;;;;;;;12.32;4.57;;;14.40;99.90;;;;;;4972077;28;20042;-77
2023/08/02 03:58:07;;;;;;;10.93;4.20;;;14.60;99.90;;;;;;4968469;29;20137;-77
2023/08/02 04:00:36;;;;;;;4.85;3.92;;;14.70;99.90;;;;;;4970918;29;20027;-78
2023/08/02 04:03:03;;;;;;;6.23;3.43;;;14.70;99.90;;;;;;4972659;29;20086;-77
2023/08/02 04:05:31;;;;;;;6.43;3.80;;;14.70;99.90;;;;;;4954036;29;20041;-78
2023/08/02 04:08:00;;;;;;;3.85;3.05;;;14.60;99.90;;;;;;4954458;29;20078;-77
2023/08/02 04:10:25;;;;;;;5.37;3.30;;;14.50;99.90;;;;;;4953494;29;20129;-78
2023/08/02 04:12:52;;;;;;;3.35;2.67;;;14.40;99.90;;;;;;4972687;29;20035;-77
2023/08/02 04:15:18;;;;;;;3.55;2.92;;;14.40;99.90;;;;;;4973451;29;20027;-77
2023/08/02 04:17:43;;;;;;;6.03;3.05;;;14.40;99.90;;;;;;4958563;29;20023;-77
2023/08/02 04:20:09;;;;;;;6.07;2.78;;;14.40;99.90;;;;;;4960315;29;20034;-80
2023/08/02 04:22:36;;;;;;;4.22;3.10;;;14.40;99.90;;;;;;4959292;29;20096;-77
2023/08/02 04:25:03;;;;;;;3.85;2.65;;;14.30;99.90;;;;;;4959472;29;20015;-78
2023/08/02 04:27:37;;;;;;;4.88;2.90;;;14.30;99.90;;;;;;4975352;29;20216;-77
2023/08/02 04:30:03;;;;;;;3.13;2.83;;;14.20;99.90;;;;;;4976511;29;20023;-78
2023/08/02 04:32:30;;;;;;;3.92;2.80;;;14.20;99.90;;;;;;4959460;29;20102;-78
2023/08/02 04:34:56;;;;;;;4.80;3.50;;;14.30;99.90;;;;;;4958712;29;20023;-77
2023/08/02 04:37:22;;;;;;;5.50;3.92;;;14.30;99.90;;;;;;4972902;29;20061;-77
2023/08/02 04:39:48;;;;;;;3.78;3.20;;;14.30;99.90;;;;;;4970196;29;20192;-78
2023/08/02 04:42:33;;;;;;;4.30;2.58;;;14.40;99.90;;;;;;4951939;29;20116;-78
2023/08/02 04:44:59;;;;;;;6.00;2.95;;;14.40;99.90;;;;;;4969515;29;20059;-78
2023/08/02 04:47:25;;;;;;;3.47;2.25;;;14.30;99.90;;;;;;4952286;29;20412;-77
2023/08/02 04:49:53;;;;;;;6.40;3.17;;;14.40;99.90;;;;;;4969044;29;20228;-77
2023/08/02 04:52:20;;;;;;;5.80;3.75;;;14.30;99.90;;;;;;4953222;29;20031;-78
2023/08/02 04:54:45;;;;;;;7.20;3.22;;;14.30;99.90;;;;;;4952679;29;20023;-78
2023/08/02 04:57:12;;;;;;;3.72;2.80;;;14.30;99.90;;;;;;4970599;29;20082;-79
2023/08/02 04:59:38;;;;;;;6.45;2.80;;;14.20;99.90;;;;;;4950860;29;20023;-77
2023/08/02 05:02:04;;;;;;;7.50;3.83;;;14.10;99.90;;;;;;4950610;29;20186;-78
2023/08/02 05:04:29;;;;;;;6.05;3.65;;;14.30;99.90;;;;;;4951541;29;20094;-78
2023/08/02 05:06:55;;;;;;;8.18;3.45;;;14.30;99.90;;;;;;4968174;28;20102;-77
2023/08/02 05:09:21;;;;;;;3.85;3.15;;;14.30;99.90;;;;;;4950840;29;20027;-77
2023/08/02 05:11:46;;;;;;;5.82;3.60;;;14.30;99.90;;;;;;4969573;29;20023;-79
2023/08/02 05:14:25;;;;;;;5.80;3.15;;;14.40;99.90;;;;;;4969579;29;20017;-77
2023/08/02 05:16:50;;;;;;;4.63;3.10;;;14.40;99.90;;;;;;4971930;29;20023;-77
2023/08/02 05:19:16;;;;;;;7.57;3.13;;;14.30;99.90;;;;;;4972104;29;20034;-77
2023/08/02 05:21:51;;;;;;;8.48;3.03;;;14.40;99.90;;;;;;4970784;29;20054;-77
2023/08/02 05:24:17;;;;;;;5.93;3.47;;;14.40;99.90;;;;;;4955277;29;20039;-77
2023/08/02 05:26:43;;;;;;;7.10;3.15;;;14.30;99.90;;;;;;4970873;29;20070;-77
2023/08/02 05:29:08;;;;;;;9.90;3.50;;;14.40;99.90;;;;;;4953227;29;20032;-78
2023/08/02 05:31:44;;;;;;;4.13;3.15;;;14.40;99.90;;;;;;4970470;29;20066;-77
2023/08/02 05:34:10;;;;;;;4.32;3.40;;;14.40;99.90;;;;;;4952173;29;20047;-77
2023/08/02 05:36:36;;;;;;;7.15;4.20;;;14.50;99.90;;;;;;4970945;29;20028;-78
2023/08/02 05:39:02;;;;;;;5.00;3.15;;;14.40;99.90;;;;;;4971853;29;20027;-77
2023/08/02 05:41:31;;;;;;;4.68;3.15;;;14.40;99.90;;;;;;4952420;29;20128;-77
2023/08/02 05:43:57;;;;;;;3.90;2.57;;;14.50;99.90;;;;;;4952745;29;20460;-77
2023/08/02 05:46:23;;;;;;;3.58;3.17;;;14.60;99.90;;;;;;4952456;29;20327;-77
2023/08/02 05:48:49;;;;;;;6.22;2.53;;;14.60;99.90;;;;;;4954010;29;20066;-77
2023/08/02 05:51:15;;;;;;;4.93;2.78;;;14.60;99.90;;;;;;4953323;29;20027;-78
2023/08/02 05:53:42;;;;;;;4.50;3.10;;;14.70;99.90;;;;;;4968036;29;20031;-78
2023/08/02 05:56:18;;;;;;;5.18;3.10;;;14.70;99.90;;;;;;4951852;29;20020;-77
2023/08/02 05:58:44;;;;;;;3.85;2.97;;;14.70;99.90;;;;;;4963406;29;20023;-79
2023/08/02 06:01:09;;;;;;;6.18;2.97;;;14.70;99.90;;;;;;4951215;29;20042;-77
2023/08/02 06:03:44;;;;;;;4.65;2.92;;;14.70;99.90;;;;;;4964789;29;20031;-78
2023/08/02 06:06:10;;;;;;;4.07;2.72;;;14.80;99.90;;;;;;4939692;29;20030;-78
2023/08/02 06:08:37;;;;;;;6.00;3.17;;;14.80;99.90;;;;;;4967466;29;20128;-77
2023/08/02 06:11:04;;;;;;;4.88;3.50;;;14.90;99.90;;;;;;4952852;29;20050;-77
2023/08/02 06:13:30;;;;;;;3.42;2.40;;;15.00;99.90;;;;;;4942386;29;20044;-79
2023/08/02 06:15:56;;;;;;;6.10;2.88;;;15.10;99.90;;;;;;4937107;29;20492;-81
2023/08/02 06:18:21;;;;;;;2.83;2.63;;;15.00;99.90;;;;;;4933107;29;20155;-79
2023/08/02 06:20:47;;;;;;;3.63;2.83;;;15.10;99.90;;;;;;4956321;29;20043;-79
2023/08/02 06:23:13;;;;;;;4.43;2.72;;;15.00;99.90;;;;;;4937036;29;20042;-79
2023/08/02 06:25:39;;;;;;;3.55;2.67;;;15.00;99.90;;;;;;4939827;29;20047;-79
2023/08/02 06:28:04;;;;;;;3.88;2.83;;;15.10;99.90;;;;;;4938984;29;20027;-79
2023/08/02 06:30:30;;;;;;;4.90;2.65;;;15.00;99.90;;;;;;4937082;29;20094;-79
2023/08/02 06:32:56;;;;;;;4.50;2.72;;;15.00;99.90;;;;;;4934255;29;20114;-79
2023/08/02 06:35:22;;;;;;;5.10;3.40;;;15.00;99.90;;;;;;4935099;29;20027;-79
2023/08/02 06:37:48;;;;;;;13.05;3.83;;;15.20;99.90;;;;;;4941621;29;20090;-78
2023/08/02 06:40:26;;;;;;;4.18;3.33;;;15.20;99.90;;;;;;5106677;27;20389;-81
2023/08/02 06:42:52;;;;;;;9.00;3.60;;;15.40;99.90;;;;;;5106484;28;20061;-78
2023/08/02 06:45:17;;;;;;;3.28;2.45;;;15.60;99.90;;;;;;5107027;28;20027;-80
2023/08/02 06:47:43;;;;;;;4.63;3.10;;;15.70;99.90;;;;;;5106556;28;20509;-81
2023/08/02 06:50:09;;;;;;;4.85;3.05;;;15.70;99.90;;;;;;5107640;28;20228;-81
2023/08/02 06:52:34;;;;;;;4.13;3.17;;;16.00;99.90;;;;;;5106524;28;20114;-83
2023/08/02 06:55:00;;;;;;;3.83;2.88;;;16.00;99.90;;;;;;5107082;28;20534;-81
2023/08/02 06:57:30;;;;;;;6.18;2.75;;;16.00;99.90;;;;;;5105013;28;20023;-82
2023/08/02 06:59:56;;;;;;;4.70;3.08;;;16.20;99.90;;;;;;5104896;28;20226;-78
2023/08/02 07:02:22;;;;;;;5.80;3.47;;;16.40;99.90;;;;;;5108104;28;20237;-82
2023/08/02 07:04:47;;;;;;;5.55;2.78;;;16.50;99.90;;;;;;5106277;28;20291;-83
2023/08/02 07:07:16;;;;;;;4.30;3.22;;;16.70;99.90;;;;;;5106525;28;20028;-84
2023/08/02 07:09:41;;;;;;;5.43;3.20;;;17.00;99.90;;;;;;5104647;28;20115;-80
2023/08/02 07:12:07;;;;;;;14.35;8.13;;;16.90;99.90;;;;;;5105773;28;20079;-82
2023/08/02 07:14:33;;;;;;;12.35;7.45;;;17.20;99.90;;;;;;5105159;28;20098;-82
2023/08/02 07:16:58;;;;;;;4.97;3.17;;;17.50;99.90;;;;;;5104659;28;20102;-81
2023/08/02 07:19:24;;;;;;;5.38;4.53;;;17.70;99.90;;;;;;5104681;28;20055;-82
2023/08/02 07:21:50;;;;;;;4.63;3.50;;;18.00;99.90;;;;;;5104378;28;20237;-79
2023/08/02 07:24:15;;;;;;;7.20;3.85;;;18.50;99.90;;;;;;5103532;28;20024;-79
2023/08/02 07:26:41;;;;;;;3.55;3.15;;;18.90;99.90;;;;;;5105223;28;20069;-80
2023/08/02 07:29:06;;;;;;;3.15;2.85;;;19.10;99.90;;;;;;5105505;28;20059;-80
2023/08/02 07:31:32;;;;;;;3.53;2.70;;;18.70;99.90;;;;;;5103642;28;20027;-80
2023/08/02 07:33:58;;;;;;;6.82;3.47;;;18.80;99.90;;;;;;5103919;28;20108;-79
2023/08/02 07:36:23;;;;;;;4.25;2.88;;;18.70;99.90;;;;;;5103908;28;20498;-78
2023/08/02 07:38:49;;;;;;;3.55;2.80;;;18.90;99.90;;;;;;5103482;28;20139;-80
2023/08/02 07:41:15;;;;;;;6.10;3.33;;;19.10;99.90;;;;;;5103982;28;20026;-79
2023/08/02 07:43:40;;;;;;;4.07;2.85;;;19.40;99.90;;;;;;5104380;28;20023;-80
2023/08/02 07:46:15;;;;;;;4.85;2.70;;;19.70;99.90;;;;;;5105109;28;20020;-78
2023/08/02 07:48:41;;;;;;;6.50;3.55;;;19.90;99.90;;;;;;5103860;28;20026;-80
2023/08/02 07:51:06;;;;;;;3.90;2.83;;;19.90;99.90;;;;;;5093369;28;20020;-83
2023/08/02 07:53:32;;;;;;;5.70;2.75;;;19.70;99.90;;;;;;5089698;28;20028;-79
2023/08/02 07:56:02;;;;;;;2.70;2.50;;;19.90;99.90;;;;;;5091385;28;20190;-79
2023/08/02 07:58:27;;;;;;;3.63;2.88;;;19.90;99.90;;;;;;5091456;28;20027;-80
2023/08/02 08:00:53;;;;;;;5.07;2.72;;;19.80;99.90;;;;;;5091765;28;20040;-80
2023/08/02 08:03:19;;;;;;;4.43;2.83;;;19.60;99.90;;;;;;5089847;28;20020;-78
2023/08/02 08:05:47;;;;;;;4.80;3.45;;;19.70;99.90;;;;;;5090861;28;20352;-79
2023/08/02 08:08:13;;;;;;;6.07;2.88;;;19.70;99.90;;;;;;5090712;28;20013;-82
2023/08/02 08:10:39;;;;;;;13.50;8.25;;;19.80;99.90;;;;;;5089658;28;20059;-78
2023/08/02 08:13:04;;;;;;;8.77;4.95;;;19.90;99.90;;;;;;5089297;28;20052;-80
2023/08/02 08:15:30;;;;;;;10.43;4.85;;;20.00;99.90;;;;;;5089188;28;20115;-78
2023/08/02 08:17:56;;;;;;;10.48;3.65;;;20.20;99.90;;;;;;5090977;28;20166;-82
2023/08/02 08:20:21;;;;;;;4.95;3.47;;;20.30;99.90;;;;;;5090802;28;20051;-78
2023/08/02 08:22:47;;;;;;;4.93;3.05;;;20.50;99.90;;;;;;5090209;28;20026;-79
2023/08/02 08:25:13;;;;;;;4.78;2.92;;;20.60;99.90;;;;;;5089410;28;20024;-79
2023/08/02 08:27:39;;;;;;;4.93;3.53;;;20.60;99.90;;;;;;5096411;28;20047;-78
2023/08/02 08:30:05;;;;;;;5.28;2.40;;;20.70;99.90;;;;;;5100367;28;20256;-79
2023/08/02 08:32:31;;;;;;;9.75;5.93;;;21.10;99.90;;;;;;5095766;28;20063;-78
2023/08/02 08:34:56;;;;;;;9.27;3.30;;;21.30;99.90;;;;;;5090508;28;20056;-78
2023/08/02 08:37:24;;;;;;;8.02;4.55;;;21.60;99.90;;;;;;5090177;28;20060;-78
2023/08/02 08:39:49;;;;;;;8.38;4.60;;;21.90;99.90;;;;;;5090218;28;20052;-78
2023/08/02 08:42:15;;;;;;;5.32;4.20;;;22.00;99.90;;;;;;5088780;28;20024;-79
2023/08/02 08:44:40;;;;;;;6.28;3.90;;;22.30;99.90;;;;;;5090182;28;20060;-79
2023/08/02 08:47:06;;;;;;;8.30;4.10;;;22.80;99.90;;;;;;5089067;28;20021;-78
2023/08/02 08:49:32;;;;;;;7.35;4.82;;;23.00;99.90;;;;;;5084121;28;20088;-79
2023/08/02 08:52:03;;;;;;;4.50;3.58;;;22.50;99.90;;;;;;5088268;28;20024;-79
2023/08/02 08:54:29;;;;;;;4.57;3.17;;;22.30;99.90;;;;;;5088880;28;20028;-79
2023/08/02 08:56:55;;;;;;;6.93;4.45;;;22.30;99.90;;;;;;5089459;28;20471;-78
2023/08/02 08:59:22;;;;;;;6.50;4.07;;;21.90;99.90;;;;;;5087514;28;20055;-79
2023/08/02 09:01:48;;;;;;;7.25;3.53;;;21.90;99.90;;;;;;5088294;28;20031;-79
2023/08/02 09:04:14;;;;;;;8.48;5.13;;;21.90;99.90;;;;;;5087736;28;20380;-79
2023/08/02 09:06:40;;;;;;;3.95;3.53;;;22.00;99.90;;;;;;5087011;28;20110;-80
2023/08/02 09:09:05;;;;;;;6.32;3.22;;;21.90;99.90;;;;;;5081730;28;20256;-80
2023/08/02 09:11:31;;;;;;;5.80;3.58;;;21.90;99.90;;;;;;5087820;28;20043;-80
2023/08/02 09:14:11;;;;;;;6.05;3.25;;;21.90;99.90;;;;;;5089323;28;20102;-79
2023/08/02 09:16:55;;;;;;;5.78;3.17;;;22.20;99.90;;;;;;5089308;28;20107;-81
2023/08/02 09:19:22;;;;;;;4.63;3.47;;;22.20;99.90;;;;;;5089830;28;20046;-80
2023/08/02 09:22:06;;;;;;;5.53;3.58;;;22.30;99.90;;;;;;5089097;28;20495;-81
2023/08/02 09:24:34;;;;;;;2.58;2.03;;;22.80;99.90;;;;;;5084908;28;20307;-77
2023/08/02 09:27:00;;;;;;;4.05;2.60;;;23.60;99.90;;;;;;5081987;28;20048;-77
2023/08/02 09:29:45;;;;;;;3.45;2.67;;;24.20;99.90;;;;;;5071931;28;20129;-79
2023/08/02 09:32:14;;;;;;;7.70;2.15;;;25.10;99.90;;;;;;5088799;28;20132;-78
2023/08/02 09:34:45;;;;;;;1.83;1.40;;;25.90;99.90;;;;;;5089072;28;20028;-78
2023/08/02 09:37:15;;;;;;;2.20;1.60;;;26.90;99.90;;;;;;5088366;28;20674;-77
2023/08/02 09:39:49;;;;;;;2.08;1.65;;;27.60;94.70;;;;;;5087579;28;20044;-78
2023/08/02 09:42:15;;;;;;;2.47;1.77;;;27.80;92.90;;;;;;5086978;28;20106;-78
2023/08/02 09:44:41;;;;;;;1.52;1.25;;;27.90;86.60;;;;;;5089357;28;20532;-77
2023/08/02 09:47:09;;;;;;;1.80;1.70;;;28.00;89.10;;;;;;5102354;28;20261;-77
2023/08/02 09:49:34;;;;;;;3.63;1.33;;;27.80;87.20;;;;;;5089285;28;20018;-79
2023/08/02 09:52:00;;;;;;;1.77;1.50;;;27.90;87.50;;;;;;5089059;28;20115;-81
2023/08/02 09:54:26;;;;;;;3.35;1.80;;;27.90;88.90;;;;;;5088563;28;20020;-77
2023/08/02 09:56:53;;;;;;;2.05;1.63;;;28.10;84.20;;;;;;5089004;28;20047;-79
2023/08/02 09:59:19;;;;;;;4.35;2.03;;;28.30;84.90;;;;;;5088470;28;20142;-73
2023/08/02 10:01:46;;;;;;;1.50;1.38;;;29.00;84.20;;;;;;5089021;28;20051;-73
2023/08/02 10:04:14;;;;;;;2.00;1.67;;;29.40;83.70;;;;;;5088508;28;20050;-74
2023/08/02 10:06:45;;;;;;;4.45;1.98;;;29.30;79.40;;;;;;5088373;28;20368;-74
2023/08/02 10:09:14;;;;;;;3.05;2.05;;;28.10;83.30;;;;;;5086789;28;20028;-78
2023/08/02 10:11:58;;;;;;;;;;;27.10;88.50;;;;;;5089468;28;20361;-76
2023/08/02 10:14:25;;;;;;;2.28;1.92;;;26.40;91.00;;;;;;5086735;28;19910;-75
2023/08/02 10:16:51;;;;;;;16.17;3.13;;;26.00;92.40;;;;;;5087065;28;20048;-74
2023/08/02 10:19:17;;;;;;;4.55;2.08;;;25.80;93.10;;;;;;5087460;28;20251;-73
2023/08/02 10:21:44;;;;;;;4.68;2.47;;;25.80;95.30;;;;;;5088558;28;20016;-78
2023/08/02 10:24:13;;;;;;;5.53;2.47;;;26.10;94.00;;;;;;5087910;28;20024;-76
2023/08/02 10:26:40;;;;;;;3.72;2.10;;;26.00;93.70;;;;;;5088448;28;20059;-77
2023/08/02 10:29:08;;;;;;;1.50;1.40;;;25.70;93.20;;;;;;5087045;28;20020;-78
2023/08/02 10:31:34;;;;;;;2.05;1.95;;;26.00;92.80;;;;;;5087131;28;20052;-78
2023/08/02 10:33:59;;;;;;;4.38;2.67;;;27.00;92.20;;;;;;5089001;28;20031;-77
2023/08/02 10:36:25;;;;;;;2.58;1.60;;;27.60;92.70;;;;;;5087588;28;20031;-77
2023/08/02 10:38:55;;;;;;;2.30;1.70;;;28.00;90.60;;;;;;5087959;28;20616;-77
2023/08/02 10:41:26;;;;;;;1.75;1.40;;;29.00;83.70;;;;;;5088677;28;20055;-76
2023/08/02 10:43:55;;;;;;;2.63;2.00;;;29.20;80.60;;;;;;5088130;28;20021;-77
2023/08/02 10:46:23;;;;;;;1.50;1.40;;;29.00;80.30;;;;;;5086918;28;20472;-76
2023/08/02 10:48:49;;;;;;;4.00;1.17;;;28.60;78.30;;;;;;5087442;28;20088;-75
2023/08/02 10:51:38;;;;;;;1.88;1.67;;;28.60;78.70;;;;;;5088069;28;20352;-75
2023/08/02 10:54:25;;;;;;;2.08;1.88;;;28.40;79.90;;;;;;5075854;28;20036;-75
2023/08/02 10:56:51;;;;;;;2.38;1.25;;;28.40;79.40;;;;;;5088700;28;20603;-79
2023/08/02 10:59:18;;;;;;;1.45;1.33;;;28.40;78.20;;;;;;5086741;28;20111;-78
2023/08/02 11:02:10;;;;;;;4.47;1.42;;;28.50;78.00;;;;;;5084557;28;20102;-80
2023/08/02 11:04:37;;;;;;;2.15;1.10;;;28.80;78.00;;;;;;5068816;28;20054;-79
2023/08/02 11:07:14;;;;;;;1.27;1.10;;;28.90;77.20;;;;;;5083776;28;20048;-78
2023/08/02 11:09:40;;;;;;;1.40;1.13;;;28.50;75.60;;;;;;5085400;28;20055;-78
2023/08/02 11:12:09;;;;;;;1.33;0.93;;;28.10;76.90;;;;;;5086770;28;20560;-79
2023/08/02 11:14:36;;;;;;;1.00;0.85;;;28.00;76.60;;;;;;5090719;28;20311;-78
2023/08/02 11:17:02;;;;;;;1.50;1.40;;;27.50;78.10;;;;;;5098200;28;20027;-77
2023/08/02 11:19:29;;;;;;;1.10;0.90;;;27.90;78.60;;;;;;5097855;28;20153;-78
2023/08/02 11:21:56;;;;;;;0.80;0.75;;;28.10;77.00;;;;;;5098383;28;20037;-79
2023/08/02 11:24:22;;;;;;;0.88;0.80;;;28.00;76.50;;;;;;5098235;28;20020;-78
2023/08/02 11:26:58;;;;;;;4.80;1.23;;;28.10;76.50;;;;;;5101426;28;20031;-79
2023/08/02 11:29:25;;;;;;;1.38;0.80;;;28.30;77.90;;;;;;5100835;28;20113;-77
2023/08/02 11:31:52;;;;;;;1.05;0.88;;;28.40;77.80;;;;;;5090498;28;20016;-78
2023/08/02 11:34:18;;;;;;;1.30;1.13;;;29.20;76.50;;;;;;5089960;28;20020;-77
2023/08/02 11:36:48;;;;;;;0.88;0.88;;;30.00;75.30;;;;;;5090929;28;20085;-79
2023/08/02 11:39:18;;;;;;;0.88;0.85;;;30.10;72.40;;;;;;5090300;28;20154;-76
2023/08/02 11:41:44;;;;;;;6.43;1.02;;;29.10;73.50;;;;;;5091252;28;20028;-78
2023/08/02 11:44:15;;;;;;;2.45;0.85;;;29.00;73.60;;;;;;5089148;28;20027;-76
2023/08/02 11:46:40;;;;;;;1.02;0.88;;;29.40;73.70;;;;;;5090695;28;20020;-78
2023/08/02 11:49:09;;;;;;;1.27;1.00;;;29.40;73.50;;;;;;5089427;28;20058;-76
2023/08/02 11:51:40;;;;;;;1.45;1.35;;;28.70;74.50;;;;;;5090621;28;20115;-76
2023/08/02 11:54:06;;;;;;;1.17;1.08;;;28.50;75.10;;;;;;5089853;28;20023;-78
2023/08/02 11:56:32;;;;;;;2.45;1.00;;;28.00;75.00;;;;;;5089318;28;20016;-78
2023/08/02 11:58:57;;;;;;;2.13;0.93;;;28.50;75.00;;;;;;5091337;28;20040;-76
2023/08/02 12:01:24;;;;;;;1.13;1.02;;;29.40;72.20;;;;;;5088037;28;20064;-78
2023/08/02 12:04:04;;;;;;;0.60;0.60;;;29.90;72.00;;;;;;5090154;28;20035;-77
2023/08/02 12:06:50;;;;;;;1.38;0.85;;;30.20;71.60;;;;;;5090299;28;20451;-74
2023/08/02 12:09:16;;;;;;;1.30;0.65;;;30.40;70.60;;;;;;5089872;28;20050;-72
2023/08/02 12:11:54;;;;;;;1.48;0.90;;;30.50;70.90;;;;;;5088766;28;20054;-74
2023/08/02 12:14:30;;;;;;;2.65;1.10;;;31.00;70.00;;;;;;5088161;28;20055;-76
2023/08/02 12:16:55;;;;;;;0.90;0.85;;;30.80;69.20;;;;;;5090262;28;20561;-77
2023/08/02 12:19:37;;;;;;;1.20;1.00;;;31.10;69.50;;;;;;5090427;28;20036;-74
2023/08/02 12:22:03;;;;;;;1.83;1.10;;;30.60;70.70;;;;;;5088875;28;20479;-75
2023/08/02 12:24:29;;;;;;;1.80;0.95;;;30.20;69.40;;;;;;5090594;28;20633;-74
2023/08/02 12:26:54;;;;;;;1.25;1.10;;;30.20;69.60;;;;;;5090722;28;20073;-75
2023/08/02 12:29:25;;;;;;;1.73;1.35;;;30.40;70.20;;;;;;5089058;28;20024;-74
2023/08/02 12:31:54;;;;;;;2.40;1.10;;;30.60;69.80;;;;;;5090599;28;20089;-74
2023/08/02 12:34:20;;;;;;;1.17;1.13;;;30.10;70.00;;;;;;5090064;28;20031;-76
2023/08/02 12:36:47;;;;;;;2.40;1.15;;;30.40;71.30;;;;;;5088842;28;20016;-74
2023/08/02 12:39:13;;;;;;;0.88;0.88;;;31.30;71.80;;;;;;5088286;28;20488;-74
2023/08/02 12:41:39;;;;;;;1.55;0.90;;;32.10;68.90;;;;;;5088967;28;20016;-74
2023/08/02 12:44:04;;;;;;;0.90;0.82;;;32.80;66.20;;;;;;5091914;28;20396;-76
2023/08/02 12:46:30;;;;;;;0.98;0.90;;;32.40;65.90;;;;;;5098850;28;20012;-75
2023/08/02 12:48:56;;;;;;;1.67;1.45;;;32.00;66.80;;;;;;5094638;28;20336;-75